Cricket — WZC7745 — position and weather

sailwx.info

Track history (hours):
 
Tides and Currents Weather Stations Pressure Air Temp Water Temp Dewpoint Dewpoint Depression Visibility Wind Speed Wind Dir Waves Ship Positions

Cricket

Last reported at 2017-Dec-15 17:15 UTC. Time now 2017-Dec-16 01:54 UTC.
Position N 31°59' W 081°02'.

Type: Pleasure craft. MMSI: 338093537.

Date/timePositionNaut miles runAvg speedWind from/ knotsBaromVisibWave heightAir tempDewpointWater temp
2017-Dec-15 17:15N 31°59' W 081°02'2 7.4
2017-Dec-15 17:01N 32°00' W 081°01'3 6.0
2017-Dec-15 16:31N 32°03' W 081°02'4 8.0
2017-Dec-15 15:59N 32°05' W 080°58'4 8.3
2017-Dec-15 15:31N 32°07' W 080°54'  
2017-Dec-10 16:07N 32°08' W 080°52'1 9.0
2017-Dec-10 16:00N 32°08' W 080°53'4 8.2
2017-Dec-10 15:30N 32°05' W 080°56'5 9.6
2017-Dec-10 15:00N 32°03' W 081°02'3 5.8
2017-Dec-10 14:30N 32°00' W 081°01'  
Track history (hours):
 
Tides and Currents Weather Stations Pressure Air Temp Water Temp Dewpoint Dewpoint Depression Visibility Wind Speed Wind Dir Waves Ship Positions

Cricket

Last reported at 2017-Dec-15 17:15 UTC. Time now 2017-Dec-16 01:54 UTC.
Position N 31°59' W 081°02'.

Type: Pleasure craft. MMSI: 338093537.

Date/timePositionNaut miles runAvg speedWind from/ knotsBaromVisibWave heightAir tempDewpointWater temp
2017-Dec-15 17:15N 31°59' W 081°02'2 7.4
2017-Dec-15 17:01N 32°00' W 081°01'3 6.0
2017-Dec-15 16:31N 32°03' W 081°02'4 8.0
2017-Dec-15 15:59N 32°05' W 080°58'4 8.3
2017-Dec-15 15:31N 32°07' W 080°54'  
2017-Dec-10 16:07N 32°08' W 080°52'1 9.0
2017-Dec-10 16:00N 32°08' W 080°53'4 8.2
2017-Dec-10 15:30N 32°05' W 080°56'5 9.6
2017-Dec-10 15:00N 32°03' W 081°02'3 5.8
2017-Dec-10 14:30N 32°00' W 081°01'  

Dump ship's entire track history